American Strong — WDJ3172 — position and weather

sailwx.info

Track history (hours):
 
Tides and Currents Weather Stations Pressure Air Temp Water Temp Dewpoint Dewpoint Depression Visibility Wind Speed Wind Dir Waves Ship Positions

American Strong

Owner: American Commercial Lines LLC, Jeffersonville, IN. More information available from US FCC via Universal Licensing System and Coast Guard Vessel Documentation Center.

Last reported at 2018-Jun-23 11:54 UTC. Time now 2018-Jun-23 12:24 UTC.
Position N 29°46' W 095°06'.

Length 26 m; draft 2.9 m.

Type: Towing. MMSI: 367765490.

Date/timePositionNaut miles runAvg speedWind from/ knotsBaromVisibWave heightAir tempDewpointWater temp
2018-Jun-23 11:54N 29°46' W 095°06'0 0.0
2018-Jun-23 09:22N 29°46' W 095°06'0 0.0
2018-Jun-23 08:58N 29°46' W 095°06'0 0.1
2018-Jun-23 07:45N 29°46' W 095°06'0 0.0
2018-Jun-23 07:20N 29°46' W 095°06'0 0.2
2018-Jun-23 06:54N 29°46' W 095°06'1 1.3
2018-Jun-23 06:29N 29°46' W 095°05'3 5.3
2018-Jun-23 06:00N 29°44' W 095°03'3 5.5
2018-Jun-23 05:30N 29°42' W 095°01'3 6.0
2018-Jun-23 04:59N 29°40' W 094°58'3 6.6
2018-Jun-23 04:30N 29°37' W 094°57'3 6.9
2018-Jun-23 04:00N 29°34' W 094°55'3 6.4
2018-Jun-23 03:30N 29°31' W 094°53'3 6.1
2018-Jun-23 03:00N 29°29' W 094°51'3 5.8
2018-Jun-23 02:30N 29°26' W 094°50'3 5.5
2018-Jun-23 02:00N 29°23' W 094°49'2 3.9
2018-Jun-23 01:30N 29°23' W 094°47'3 5.8
2018-Jun-23 01:00N 29°25' W 094°44'1 2.0
2018-Jun-23 00:30N 29°25' W 094°44'0 0.2
2018-Jun-22 23:59N 29°25' W 094°44'2 3.7
2018-Jun-22 23:24N 29°24' W 094°45'2 5.0
2018-Jun-22 22:56N 29°22' W 094°47'3 7.1
2018-Jun-22 22:30N 29°25' W 094°49'4 7.6
2018-Jun-22 22:00N 29°28' W 094°51'4 7.3
2018-Jun-22 21:30N 29°31' W 094°53'4 7.2
2018-Jun-22 21:00N 29°34' W 094°55'4 7.0
2018-Jun-22 20:30N 29°37' W 094°58'4 7.1
2018-Jun-22 20:00N 29°41' W 094°59'3 0.6
2018-Jun-22 15:15N 29°42' W 095°01'2 6.5
2018-Jun-22 15:00N 29°42' W 094°59'4 7.4
2018-Jun-22 14:29N 29°38' W 094°58'2 5.1
2018-Jun-22 14:00N 29°36' W 094°57'4 7.5
2018-Jun-22 13:28N 29°32' W 094°54'4 7.5
2018-Jun-22 12:59N 29°29' W 094°52'4 8.1
2018-Jun-22 12:30N 29°26' W 094°50'4 7.9
2018-Jun-22 11:59N 29°22' W 094°48'3 6.6
2018-Jun-22 11:30N 29°24' W 094°45'7 4.6
2018-Jun-22 09:53N 29°28' W 094°38'0 0.2
2018-Jun-22 09:03N 29°28' W 094°38'0 0.5
2018-Jun-22 09:00N 29°28' W 094°38'0 0.0
2018-Jun-22 08:20N 29°28' W 094°38'0 0.9
2018-Jun-22 07:57N 29°28' W 094°38'2 3.7
2018-Jun-22 07:25N 29°27' W 094°40'2 4.3
2018-Jun-22 06:52N 29°26' W 094°43'1 1.5
2018-Jun-22 06:27N 29°26' W 094°43'0 0.1
2018-Jun-22 06:00N 29°26' W 094°43'0 0.2
2018-Jun-22 05:26N 29°26' W 094°43'0 0.1
2018-Jun-22 04:55N 29°26' W 094°43'0 0.2
2018-Jun-22 04:30N 29°26' W 094°43'0 0.1
2018-Jun-22 03:59N 29°26' W 094°43'2 3.2
2018-Jun-22 03:30N 29°25' W 094°44'2 4.2
2018-Jun-22 03:00N 29°23' W 094°46'2 4.2
2018-Jun-22 02:30N 29°22' W 094°48'1 2.7
2018-Jun-22 02:00N 29°22' W 094°49'2 4.2
2018-Jun-22 01:30N 29°23' W 094°52'2 3.0
2018-Jun-22 01:00N 29°22' W 094°53'1 2.0
2018-Jun-22 00:30N 29°22' W 094°54'0 0.0
2018-Jun-22 00:00N 29°22' W 094°54'0 0.0
2018-Jun-21 23:30N 29°22' W 094°54'0 0.0
2018-Jun-21 23:00N 29°22' W 094°54'0 0.0
2018-Jun-21 22:30N 29°22' W 094°54'0 0.0
2018-Jun-21 22:00N 29°22' W 094°54'0 0.0
2018-Jun-21 21:30N 29°22' W 094°54'0 0.0
2018-Jun-21 21:00N 29°22' W 094°54'0 0.0
2018-Jun-21 20:30N 29°22' W 094°54'0 0.0
2018-Jun-21 20:00N 29°22' W 094°54'0 0.0
2018-Jun-21 19:30N 29°22' W 094°54'0 0.0
2018-Jun-21 19:00N 29°22' W 094°54'0 0.0
2018-Jun-21 18:30N 29°22' W 094°54'0 0.0
2018-Jun-21 18:00N 29°22' W 094°54'0 0.0
2018-Jun-21 17:30N 29°22' W 094°54'0 0.0
2018-Jun-21 17:00N 29°22' W 094°54'0 0.0
2018-Jun-21 16:30N 29°22' W 094°54'0 0.0
2018-Jun-21 16:00N 29°22' W 094°54'0 0.0
2018-Jun-21 15:30N 29°22' W 094°54'0 0.0
2018-Jun-21 15:00N 29°22' W 094°54'0 0.0
2018-Jun-21 14:31N 29°22' W 094°54'0 0.0
2018-Jun-21 14:01N 29°22' W 094°54'0 0.0
2018-Jun-21 13:30N 29°22' W 094°54'0 0.0
2018-Jun-21 13:00N 29°22' W 094°54'0 0.0
2018-Jun-21 12:31N 29°22' W 094°54'0 0.0
2018-Jun-21 12:00N 29°22' W 094°54'0 0.0
2018-Jun-21 11:30N 29°22' W 094°54'0 0.0
2018-Jun-21 11:01N 29°22' W 094°54'0 0.0
2018-Jun-21 10:30N 29°22' W 094°54'0 0.0
2018-Jun-21 10:01N 29°22' W 094°54'0 0.0
2018-Jun-21 09:31N 29°22' W 094°54'0 0.0
2018-Jun-21 09:00N 29°22' W 094°54'0 0.0
2018-Jun-21 08:31N 29°22' W 094°54'0 0.0
2018-Jun-21 08:00N 29°22' W 094°54'0 0.0
2018-Jun-21 07:30N 29°22' W 094°54'0 0.0
2018-Jun-21 07:00N 29°22' W 094°54'0 0.0
2018-Jun-21 06:31N 29°22' W 094°54'0 0.0
2018-Jun-21 06:01N 29°22' W 094°54'0 0.7
2018-Jun-21 05:30N 29°22' W 094°55'3 4.9
2018-Jun-21 04:59N 29°23' W 094°52'4 7.2
2018-Jun-21 04:30N 29°22' W 094°48'4 8.4
2018-Jun-21 04:00N 29°26' W 094°50'4 8.4
2018-Jun-21 03:31N 29°30' W 094°52'4 8.2
2018-Jun-21 03:00N 29°33' W 094°55'4 8.2
2018-Jun-21 02:30N 29°36' W 094°57'4 8.8
2018-Jun-21 02:00N 29°41' W 094°59'8 0.3
2018-Jun-20 01:38N 29°46' W 095°05'0 0.0
2018-Jun-20 01:26N 29°46' W 095°05'5 0.2
2018-Jun-18 21:39N 29°42' W 095°01'2 7.3
2018-Jun-18 21:25N 29°42' W 094°59'4 6.6
2018-Jun-18 20:50N 29°38' W 094°58'17 7.8
2018-Jun-18 18:38N 29°23' W 094°48'1 6.9
2018-Jun-18 18:28N 29°22' W 094°48'2 5.1
2018-Jun-18 18:00N 29°22' W 094°51'2 4.3
2018-Jun-18 17:28N 29°22' W 094°53'1 1.7
2018-Jun-18 17:00N 29°22' W 094°54'0 0.0
2018-Jun-18 16:30N 29°22' W 094°54'0 0.0
2018-Jun-18 16:00N 29°22' W 094°54'0 0.0
2018-Jun-18 15:30N 29°22' W 094°54'0 0.0
2018-Jun-18 15:00N 29°22' W 094°54'0 0.0
2018-Jun-18 14:30N 29°22' W 094°54'0 0.0
2018-Jun-18 14:00N 29°22' W 094°54'0 0.0
2018-Jun-18 13:30N 29°22' W 094°54'0 0.0
2018-Jun-18 13:00N 29°22' W 094°54'0 0.0
2018-Jun-18 12:30N 29°22' W 094°54'0 0.0
2018-Jun-18 12:00N 29°22' W 094°54'0 0.0
2018-Jun-18 11:30N 29°22' W 094°54'0 0.0
2018-Jun-18 11:00N 29°22' W 094°54'0 0.0
2018-Jun-18 10:30N 29°22' W 094°54'0 0.0
2018-Jun-18 10:00N 29°22' W 094°54'0 0.0
2018-Jun-18 09:30N 29°22' W 094°54'0 0.0
2018-Jun-18 09:00N 29°22' W 094°54'0 0.0
2018-Jun-18 08:30N 29°22' W 094°54'0 0.0
2018-Jun-18 08:00N 29°22' W 094°54'0 0.0
2018-Jun-18 07:30N 29°22' W 094°54'0 0.0
2018-Jun-18 07:00N 29°22' W 094°54'0 0.0
2018-Jun-18 06:30N 29°22' W 094°54'0 0.0
2018-Jun-18 06:00N 29°22' W 094°54'0 0.0
2018-Jun-18 05:30N 29°22' W 094°54'0 0.0
2018-Jun-18 05:00N 29°22' W 094°54'0 0.0
2018-Jun-18 04:30N 29°22' W 094°54'0 0.0
2018-Jun-18 04:00N 29°22' W 094°54'0 0.0
2018-Jun-18 03:30N 29°22' W 094°54'1 1.0
2018-Jun-18 03:00N 29°22' W 094°54'5 7.1
2018-Jun-18 02:21N 29°22' W 094°48'3 8.2
2018-Jun-18 02:00N 29°24' W 094°49'4 8.7
2018-Jun-18 01:30N 29°28' W 094°51'4 8.4
2018-Jun-18 01:00N 29°32' W 094°54'4 8.6
2018-Jun-18 00:30N 29°36' W 094°57'5 8.8
2018-Jun-18 00:00N 29°40' W 094°58'9 0.2
2018-Jun-16 11:20N 29°46' W 095°05'5 3.0
2018-Jun-16 09:31N 29°42' W 095°01'1 5.8
2018-Jun-16 09:18N 29°42' W 094°60'2 5.9
2018-Jun-16 08:59N 29°40' W 094°58'3 6.0
2018-Jun-16 08:27N 29°37' W 094°57'16 5.9
2018-Jun-16 05:44N 29°23' W 094°49'1 4.4
2018-Jun-16 05:26N 29°22' W 094°47'2 4.2
2018-Jun-16 05:00N 29°23' W 094°46'2 4.2
2018-Jun-16 04:27N 29°25' W 094°44'17 4.9
2018-Jun-16 00:59N 29°34' W 094°27'3 4.6
2018-Jun-16 00:20N 29°36' W 094°24'1 3.4
2018-Jun-16 00:00N 29°36' W 094°23'3 5.2
2018-Jun-15 23:30N 29°37' W 094°21'3 5.4
2018-Jun-15 23:01N 29°38' W 094°18'3 5.4
2018-Jun-15 22:30N 29°39' W 094°15'2 4.8
2018-Jun-15 22:00N 29°41' W 094°13'2 5.0
2018-Jun-15 21:31N 29°41' W 094°10'3 5.0
2018-Jun-15 21:00N 29°43' W 094°08'3 5.0
2018-Jun-15 20:30N 29°44' W 094°05'3 5.3
2018-Jun-15 20:00N 29°46' W 094°03'3 5.3
2018-Jun-15 19:31N 29°48' W 094°01'3 5.0
2018-Jun-15 19:00N 29°49' W 093°58'2 3.7
2018-Jun-15 18:31N 29°51' W 093°57'3 5.0
2018-Jun-15 18:01N 29°53' W 093°55'3 5.3
2018-Jun-15 17:31N 29°55' W 093°53'2 3.2
2018-Jun-15 17:00N 29°56' W 093°52'0 0.1
2018-Jun-15 16:30N 29°56' W 093°52'0 0.1
2018-Jun-15 15:56N 29°56' W 093°52'0 0.0
2018-Jun-15 15:30N 29°56' W 093°52'1 1.2
2018-Jun-15 15:00N 29°57' W 093°52'1 2.0
2018-Jun-15 14:30N 29°58' W 093°52'1 1.0
2018-Jun-15 14:00N 29°57' W 093°52'1 1.6
2018-Jun-15 13:30N 29°58' W 093°51'0 0.6
2018-Jun-15 13:00N 29°58' W 093°52'0 0.0
2018-Jun-15 12:30N 29°58' W 093°52'0 0.0
2018-Jun-15 12:00N 29°58' W 093°52'0 0.0
2018-Jun-15 11:30N 29°58' W 093°52'0 0.0
2018-Jun-15 10:59N 29°58' W 093°52'0 0.0
2018-Jun-15 10:30N 29°58' W 093°52'0 0.0
2018-Jun-15 09:59N 29°58' W 093°52'0 0.0
2018-Jun-15 09:30N 29°58' W 093°52'0 0.0
2018-Jun-15 09:00N 29°58' W 093°52'0 0.0
2018-Jun-15 08:30N 29°58' W 093°52'0 0.0
2018-Jun-15 08:00N 29°58' W 093°52'0 0.0
2018-Jun-15 07:30N 29°58' W 093°52'0 0.0
2018-Jun-15 07:00N 29°58' W 093°52'0 0.0
2018-Jun-15 06:30N 29°58' W 093°52'0 0.0
2018-Jun-15 06:00N 29°58' W 093°52'0 0.0
2018-Jun-15 05:30N 29°58' W 093°52'0 0.0
2018-Jun-15 05:00N 29°58' W 093°52'0 0.0
2018-Jun-15 04:30N 29°58' W 093°52'0 0.0
2018-Jun-15 04:00N 29°58' W 093°52'0 0.0
2018-Jun-15 03:29N 29°58' W 093°52'0 0.0
2018-Jun-15 03:00N 29°58' W 093°52'0 0.0
2018-Jun-15 02:30N 29°58' W 093°52'0 0.0
2018-Jun-15 02:00N 29°58' W 093°52'0 0.0
2018-Jun-15 01:30N 29°58' W 093°52'0 0.0
2018-Jun-15 01:00N 29°58' W 093°52'0 0.0
2018-Jun-15 00:30N 29°58' W 093°52'0 0.0
2018-Jun-15 00:00N 29°58' W 093°52'0 0.0
2018-Jun-14 23:30N 29°58' W 093°52'0 0.0
2018-Jun-14 23:00N 29°58' W 093°52'0 0.0
2018-Jun-14 22:30N 29°58' W 093°52'0 0.0
2018-Jun-14 22:00N 29°58' W 093°52'0 0.0
2018-Jun-14 21:30N 29°58' W 093°52'0 0.0
2018-Jun-14 21:00N 29°58' W 093°52'0 0.6
2018-Jun-14 20:31N 29°58' W 093°51'2 4.1
2018-Jun-14 20:00N 29°56' W 093°52'0 0.0
2018-Jun-14 19:30N 29°56' W 093°52'0 0.0
2018-Jun-14 19:00N 29°56' W 093°52'0 0.6
2018-Jun-14 18:30N 29°56' W 093°53'3 6.8
2018-Jun-14 18:00N 29°53' W 093°55'3 6.7
2018-Jun-14 17:30N 29°50' W 093°57'2 4.3
2018-Jun-14 17:00N 29°49' W 093°59'2 4.6
2018-Jun-14 16:30N 29°47' W 094°01'3 6.1
2018-Jun-14 16:00N 29°45' W 094°04'3 6.0
2018-Jun-14 15:30N 29°44' W 094°06'3 5.9
2018-Jun-14 15:00N 29°42' W 094°09'3 5.8
2018-Jun-14 14:30N 29°41' W 094°12'3 5.9
2018-Jun-14 14:00N 29°39' W 094°15'3 5.8
2018-Jun-14 13:30N 29°38' W 094°18'3 5.7
2018-Jun-14 13:00N 29°37' W 094°21'3 5.3
2018-Jun-14 12:31N 29°36' W 094°24'1 2.3
2018-Jun-14 12:00N 29°35' W 094°25'2 3.3
2018-Jun-14 11:17N 29°34' W 094°27'2 6.4
2018-Jun-14 11:00N 29°32' W 094°29'7 3.6
2018-Jun-14 09:07N 29°29' W 094°35'2 4.9
2018-Jun-14 08:38N 29°28' W 094°38'2 6.1
2018-Jun-14 08:15N 29°27' W 094°40'2 5.2
2018-Jun-14 07:53N 29°26' W 094°42'2 5.0
2018-Jun-14 07:27N 29°25' W 094°44'1 1.4
2018-Jun-14 06:53N 29°24' W 094°45'2 5.0
2018-Jun-14 06:29N 29°23' W 094°46'2 4.6
2018-Jun-14 06:00N 29°23' W 094°49'4 8.5
2018-Jun-14 05:30N 29°27' W 094°51'4 8.0
2018-Jun-14 04:59N 29°31' W 094°53'4 7.4
2018-Jun-14 04:28N 29°34' W 094°55'3 7.2
2018-Jun-14 04:01N 29°37' W 094°57'4 7.7
2018-Jun-14 03:30N 29°41' W 094°59'4 6.7
2018-Jun-14 02:54N 29°44' W 095°02'4 6.6
2018-Jun-14 02:22N 29°46' W 095°05'0 0.1
2018-Jun-14 01:05N 29°46' W 095°05'1 5.9
2018-Jun-14 00:58N 29°45' W 095°06'  
Track history (hours):
 
Tides and Currents Weather Stations Pressure Air Temp Water Temp Dewpoint Dewpoint Depression Visibility Wind Speed Wind Dir Waves Ship Positions

American Strong

Owner: American Commercial Lines LLC, Jeffersonville, IN. More information available from US FCC via Universal Licensing System and Coast Guard Vessel Documentation Center.

Last reported at 2018-Jun-23 11:54 UTC. Time now 2018-Jun-23 12:24 UTC.
Position N 29°46' W 095°06'.

Length 26 m; draft 2.9 m.

Type: Towing. MMSI: 367765490.

Date/timePositionNaut miles runAvg speedWind from/ knotsBaromVisibWave heightAir tempDewpointWater temp
2018-Jun-23 11:54N 29°46' W 095°06'0 0.0
2018-Jun-23 09:22N 29°46' W 095°06'0 0.0
2018-Jun-23 08:58N 29°46' W 095°06'0 0.1
2018-Jun-23 07:45N 29°46' W 095°06'0 0.0
2018-Jun-23 07:20N 29°46' W 095°06'0 0.2
2018-Jun-23 06:54N 29°46' W 095°06'1 1.3
2018-Jun-23 06:29N 29°46' W 095°05'3 5.3
2018-Jun-23 06:00N 29°44' W 095°03'3 5.5
2018-Jun-23 05:30N 29°42' W 095°01'3 6.0
2018-Jun-23 04:59N 29°40' W 094°58'3 6.6
2018-Jun-23 04:30N 29°37' W 094°57'3 6.9
2018-Jun-23 04:00N 29°34' W 094°55'3 6.4
2018-Jun-23 03:30N 29°31' W 094°53'3 6.1
2018-Jun-23 03:00N 29°29' W 094°51'3 5.8
2018-Jun-23 02:30N 29°26' W 094°50'3 5.5
2018-Jun-23 02:00N 29°23' W 094°49'2 3.9
2018-Jun-23 01:30N 29°23' W 094°47'3 5.8
2018-Jun-23 01:00N 29°25' W 094°44'1 2.0
2018-Jun-23 00:30N 29°25' W 094°44'0 0.2
2018-Jun-22 23:59N 29°25' W 094°44'2 3.7
2018-Jun-22 23:24N 29°24' W 094°45'2 5.0
2018-Jun-22 22:56N 29°22' W 094°47'3 7.1
2018-Jun-22 22:30N 29°25' W 094°49'4 7.6
2018-Jun-22 22:00N 29°28' W 094°51'4 7.3
2018-Jun-22 21:30N 29°31' W 094°53'4 7.2
2018-Jun-22 21:00N 29°34' W 094°55'4 7.0
2018-Jun-22 20:30N 29°37' W 094°58'4 7.1
2018-Jun-22 20:00N 29°41' W 094°59'3 0.6
2018-Jun-22 15:15N 29°42' W 095°01'2 6.5
2018-Jun-22 15:00N 29°42' W 094°59'4 7.4
2018-Jun-22 14:29N 29°38' W 094°58'2 5.1
2018-Jun-22 14:00N 29°36' W 094°57'4 7.5
2018-Jun-22 13:28N 29°32' W 094°54'4 7.5
2018-Jun-22 12:59N 29°29' W 094°52'4 8.1
2018-Jun-22 12:30N 29°26' W 094°50'4 7.9
2018-Jun-22 11:59N 29°22' W 094°48'3 6.6
2018-Jun-22 11:30N 29°24' W 094°45'7 4.6
2018-Jun-22 09:53N 29°28' W 094°38'0 0.2
2018-Jun-22 09:03N 29°28' W 094°38'0 0.5
2018-Jun-22 09:00N 29°28' W 094°38'0 0.0
2018-Jun-22 08:20N 29°28' W 094°38'0 0.9
2018-Jun-22 07:57N 29°28' W 094°38'2 3.7
2018-Jun-22 07:25N 29°27' W 094°40'2 4.3
2018-Jun-22 06:52N 29°26' W 094°43'1 1.5
2018-Jun-22 06:27N 29°26' W 094°43'0 0.1
2018-Jun-22 06:00N 29°26' W 094°43'0 0.2
2018-Jun-22 05:26N 29°26' W 094°43'0 0.1
2018-Jun-22 04:55N 29°26' W 094°43'0 0.2
2018-Jun-22 04:30N 29°26' W 094°43'0 0.1
2018-Jun-22 03:59N 29°26' W 094°43'2 3.2
2018-Jun-22 03:30N 29°25' W 094°44'2 4.2
2018-Jun-22 03:00N 29°23' W 094°46'2 4.2
2018-Jun-22 02:30N 29°22' W 094°48'1 2.7
2018-Jun-22 02:00N 29°22' W 094°49'2 4.2
2018-Jun-22 01:30N 29°23' W 094°52'2 3.0
2018-Jun-22 01:00N 29°22' W 094°53'1 2.0
2018-Jun-22 00:30N 29°22' W 094°54'0 0.0
2018-Jun-22 00:00N 29°22' W 094°54'0 0.0
2018-Jun-21 23:30N 29°22' W 094°54'0 0.0
2018-Jun-21 23:00N 29°22' W 094°54'0 0.0
2018-Jun-21 22:30N 29°22' W 094°54'0 0.0
2018-Jun-21 22:00N 29°22' W 094°54'0 0.0
2018-Jun-21 21:30N 29°22' W 094°54'0 0.0
2018-Jun-21 21:00N 29°22' W 094°54'0 0.0
2018-Jun-21 20:30N 29°22' W 094°54'0 0.0
2018-Jun-21 20:00N 29°22' W 094°54'0 0.0
2018-Jun-21 19:30N 29°22' W 094°54'0 0.0
2018-Jun-21 19:00N 29°22' W 094°54'0 0.0
2018-Jun-21 18:30N 29°22' W 094°54'0 0.0
2018-Jun-21 18:00N 29°22' W 094°54'0 0.0
2018-Jun-21 17:30N 29°22' W 094°54'0 0.0
2018-Jun-21 17:00N 29°22' W 094°54'0 0.0
2018-Jun-21 16:30N 29°22' W 094°54'0 0.0
2018-Jun-21 16:00N 29°22' W 094°54'0 0.0
2018-Jun-21 15:30N 29°22' W 094°54'0 0.0
2018-Jun-21 15:00N 29°22' W 094°54'0 0.0
2018-Jun-21 14:31N 29°22' W 094°54'0 0.0
2018-Jun-21 14:01N 29°22' W 094°54'0 0.0
2018-Jun-21 13:30N 29°22' W 094°54'0 0.0
2018-Jun-21 13:00N 29°22' W 094°54'0 0.0
2018-Jun-21 12:31N 29°22' W 094°54'0 0.0
2018-Jun-21 12:00N 29°22' W 094°54'0 0.0
2018-Jun-21 11:30N 29°22' W 094°54'0 0.0
2018-Jun-21 11:01N 29°22' W 094°54'0 0.0
2018-Jun-21 10:30N 29°22' W 094°54'0 0.0
2018-Jun-21 10:01N 29°22' W 094°54'0 0.0
2018-Jun-21 09:31N 29°22' W 094°54'0 0.0
2018-Jun-21 09:00N 29°22' W 094°54'0 0.0
2018-Jun-21 08:31N 29°22' W 094°54'0 0.0
2018-Jun-21 08:00N 29°22' W 094°54'0 0.0
2018-Jun-21 07:30N 29°22' W 094°54'0 0.0
2018-Jun-21 07:00N 29°22' W 094°54'0 0.0
2018-Jun-21 06:31N 29°22' W 094°54'0 0.0
2018-Jun-21 06:01N 29°22' W 094°54'0 0.7
2018-Jun-21 05:30N 29°22' W 094°55'3 4.9
2018-Jun-21 04:59N 29°23' W 094°52'4 7.2
2018-Jun-21 04:30N 29°22' W 094°48'4 8.4
2018-Jun-21 04:00N 29°26' W 094°50'4 8.4
2018-Jun-21 03:31N 29°30' W 094°52'4 8.2
2018-Jun-21 03:00N 29°33' W 094°55'4 8.2
2018-Jun-21 02:30N 29°36' W 094°57'4 8.8
2018-Jun-21 02:00N 29°41' W 094°59'8 0.3
2018-Jun-20 01:38N 29°46' W 095°05'0 0.0
2018-Jun-20 01:26N 29°46' W 095°05'5 0.2
2018-Jun-18 21:39N 29°42' W 095°01'2 7.3
2018-Jun-18 21:25N 29°42' W 094°59'4 6.6
2018-Jun-18 20:50N 29°38' W 094°58'17 7.8
2018-Jun-18 18:38N 29°23' W 094°48'1 6.9
2018-Jun-18 18:28N 29°22' W 094°48'2 5.1
2018-Jun-18 18:00N 29°22' W 094°51'2 4.3
2018-Jun-18 17:28N 29°22' W 094°53'1 1.7
2018-Jun-18 17:00N 29°22' W 094°54'0 0.0
2018-Jun-18 16:30N 29°22' W 094°54'0 0.0
2018-Jun-18 16:00N 29°22' W 094°54'0 0.0
2018-Jun-18 15:30N 29°22' W 094°54'0 0.0
2018-Jun-18 15:00N 29°22' W 094°54'0 0.0
2018-Jun-18 14:30N 29°22' W 094°54'0 0.0
2018-Jun-18 14:00N 29°22' W 094°54'0 0.0
2018-Jun-18 13:30N 29°22' W 094°54'0 0.0
2018-Jun-18 13:00N 29°22' W 094°54'0 0.0
2018-Jun-18 12:30N 29°22' W 094°54'0 0.0
2018-Jun-18 12:00N 29°22' W 094°54'0 0.0
2018-Jun-18 11:30N 29°22' W 094°54'0 0.0
2018-Jun-18 11:00N 29°22' W 094°54'0 0.0
2018-Jun-18 10:30N 29°22' W 094°54'0 0.0
2018-Jun-18 10:00N 29°22' W 094°54'0 0.0
2018-Jun-18 09:30N 29°22' W 094°54'0 0.0
2018-Jun-18 09:00N 29°22' W 094°54'0 0.0
2018-Jun-18 08:30N 29°22' W 094°54'0 0.0
2018-Jun-18 08:00N 29°22' W 094°54'0 0.0
2018-Jun-18 07:30N 29°22' W 094°54'0 0.0
2018-Jun-18 07:00N 29°22' W 094°54'0 0.0
2018-Jun-18 06:30N 29°22' W 094°54'0 0.0
2018-Jun-18 06:00N 29°22' W 094°54'0 0.0
2018-Jun-18 05:30N 29°22' W 094°54'0 0.0
2018-Jun-18 05:00N 29°22' W 094°54'0 0.0
2018-Jun-18 04:30N 29°22' W 094°54'0 0.0
2018-Jun-18 04:00N 29°22' W 094°54'0 0.0
2018-Jun-18 03:30N 29°22' W 094°54'1 1.0
2018-Jun-18 03:00N 29°22' W 094°54'5 7.1
2018-Jun-18 02:21N 29°22' W 094°48'3 8.2
2018-Jun-18 02:00N 29°24' W 094°49'4 8.7
2018-Jun-18 01:30N 29°28' W 094°51'4 8.4
2018-Jun-18 01:00N 29°32' W 094°54'4 8.6
2018-Jun-18 00:30N 29°36' W 094°57'5 8.8
2018-Jun-18 00:00N 29°40' W 094°58'9 0.2
2018-Jun-16 11:20N 29°46' W 095°05'5 3.0
2018-Jun-16 09:31N 29°42' W 095°01'1 5.8
2018-Jun-16 09:18N 29°42' W 094°60'2 5.9
2018-Jun-16 08:59N 29°40' W 094°58'3 6.0
2018-Jun-16 08:27N 29°37' W 094°57'16 5.9
2018-Jun-16 05:44N 29°23' W 094°49'1 4.4
2018-Jun-16 05:26N 29°22' W 094°47'2 4.2
2018-Jun-16 05:00N 29°23' W 094°46'2 4.2
2018-Jun-16 04:27N 29°25' W 094°44'17 4.9
2018-Jun-16 00:59N 29°34' W 094°27'3 4.6
2018-Jun-16 00:20N 29°36' W 094°24'1 3.4
2018-Jun-16 00:00N 29°36' W 094°23'3 5.2
2018-Jun-15 23:30N 29°37' W 094°21'3 5.4
2018-Jun-15 23:01N 29°38' W 094°18'3 5.4
2018-Jun-15 22:30N 29°39' W 094°15'2 4.8
2018-Jun-15 22:00N 29°41' W 094°13'2 5.0
2018-Jun-15 21:31N 29°41' W 094°10'3 5.0
2018-Jun-15 21:00N 29°43' W 094°08'3 5.0
2018-Jun-15 20:30N 29°44' W 094°05'3 5.3
2018-Jun-15 20:00N 29°46' W 094°03'3 5.3
2018-Jun-15 19:31N 29°48' W 094°01'3 5.0
2018-Jun-15 19:00N 29°49' W 093°58'2 3.7
2018-Jun-15 18:31N 29°51' W 093°57'3 5.0
2018-Jun-15 18:01N 29°53' W 093°55'3 5.3
2018-Jun-15 17:31N 29°55' W 093°53'2 3.2
2018-Jun-15 17:00N 29°56' W 093°52'0 0.1
2018-Jun-15 16:30N 29°56' W 093°52'0 0.1
2018-Jun-15 15:56N 29°56' W 093°52'0 0.0
2018-Jun-15 15:30N 29°56' W 093°52'1 1.2
2018-Jun-15 15:00N 29°57' W 093°52'1 2.0
2018-Jun-15 14:30N 29°58' W 093°52'1 1.0
2018-Jun-15 14:00N 29°57' W 093°52'1 1.6
2018-Jun-15 13:30N 29°58' W 093°51'0 0.6
2018-Jun-15 13:00N 29°58' W 093°52'0 0.0
2018-Jun-15 12:30N 29°58' W 093°52'0 0.0
2018-Jun-15 12:00N 29°58' W 093°52'0 0.0
2018-Jun-15 11:30N 29°58' W 093°52'0 0.0
2018-Jun-15 10:59N 29°58' W 093°52'0 0.0
2018-Jun-15 10:30N 29°58' W 093°52'0 0.0
2018-Jun-15 09:59N 29°58' W 093°52'0 0.0
2018-Jun-15 09:30N 29°58' W 093°52'0 0.0
2018-Jun-15 09:00N 29°58' W 093°52'0 0.0
2018-Jun-15 08:30N 29°58' W 093°52'0 0.0
2018-Jun-15 08:00N 29°58' W 093°52'0 0.0
2018-Jun-15 07:30N 29°58' W 093°52'0 0.0
2018-Jun-15 07:00N 29°58' W 093°52'0 0.0
2018-Jun-15 06:30N 29°58' W 093°52'0 0.0
2018-Jun-15 06:00N 29°58' W 093°52'0 0.0
2018-Jun-15 05:30N 29°58' W 093°52'0 0.0
2018-Jun-15 05:00N 29°58' W 093°52'0 0.0
2018-Jun-15 04:30N 29°58' W 093°52'0 0.0
2018-Jun-15 04:00N 29°58' W 093°52'0 0.0
2018-Jun-15 03:29N 29°58' W 093°52'0 0.0
2018-Jun-15 03:00N 29°58' W 093°52'0 0.0
2018-Jun-15 02:30N 29°58' W 093°52'0 0.0
2018-Jun-15 02:00N 29°58' W 093°52'0 0.0
2018-Jun-15 01:30N 29°58' W 093°52'0 0.0
2018-Jun-15 01:00N 29°58' W 093°52'0 0.0
2018-Jun-15 00:30N 29°58' W 093°52'0 0.0
2018-Jun-15 00:00N 29°58' W 093°52'0 0.0
2018-Jun-14 23:30N 29°58' W 093°52'0 0.0
2018-Jun-14 23:00N 29°58' W 093°52'0 0.0
2018-Jun-14 22:30N 29°58' W 093°52'0 0.0
2018-Jun-14 22:00N 29°58' W 093°52'0 0.0
2018-Jun-14 21:30N 29°58' W 093°52'0 0.0
2018-Jun-14 21:00N 29°58' W 093°52'0 0.6
2018-Jun-14 20:31N 29°58' W 093°51'2 4.1
2018-Jun-14 20:00N 29°56' W 093°52'0 0.0
2018-Jun-14 19:30N 29°56' W 093°52'0 0.0
2018-Jun-14 19:00N 29°56' W 093°52'0 0.6
2018-Jun-14 18:30N 29°56' W 093°53'3 6.8
2018-Jun-14 18:00N 29°53' W 093°55'3 6.7
2018-Jun-14 17:30N 29°50' W 093°57'2 4.3
2018-Jun-14 17:00N 29°49' W 093°59'2 4.6
2018-Jun-14 16:30N 29°47' W 094°01'3 6.1
2018-Jun-14 16:00N 29°45' W 094°04'3 6.0
2018-Jun-14 15:30N 29°44' W 094°06'3 5.9
2018-Jun-14 15:00N 29°42' W 094°09'3 5.8
2018-Jun-14 14:30N 29°41' W 094°12'3 5.9
2018-Jun-14 14:00N 29°39' W 094°15'3 5.8
2018-Jun-14 13:30N 29°38' W 094°18'3 5.7
2018-Jun-14 13:00N 29°37' W 094°21'3 5.3
2018-Jun-14 12:31N 29°36' W 094°24'1 2.3
2018-Jun-14 12:00N 29°35' W 094°25'2 3.3
2018-Jun-14 11:17N 29°34' W 094°27'2 6.4
2018-Jun-14 11:00N 29°32' W 094°29'7 3.6
2018-Jun-14 09:07N 29°29' W 094°35'2 4.9
2018-Jun-14 08:38N 29°28' W 094°38'2 6.1
2018-Jun-14 08:15N 29°27' W 094°40'2 5.2
2018-Jun-14 07:53N 29°26' W 094°42'2 5.0
2018-Jun-14 07:27N 29°25' W 094°44'1 1.4
2018-Jun-14 06:53N 29°24' W 094°45'2 5.0
2018-Jun-14 06:29N 29°23' W 094°46'2 4.6
2018-Jun-14 06:00N 29°23' W 094°49'4 8.5
2018-Jun-14 05:30N 29°27' W 094°51'4 8.0
2018-Jun-14 04:59N 29°31' W 094°53'4 7.4
2018-Jun-14 04:28N 29°34' W 094°55'3 7.2
2018-Jun-14 04:01N 29°37' W 094°57'4 7.7
2018-Jun-14 03:30N 29°41' W 094°59'4 6.7
2018-Jun-14 02:54N 29°44' W 095°02'4 6.6
2018-Jun-14 02:22N 29°46' W 095°05'0 0.1
2018-Jun-14 01:05N 29°46' W 095°05'1 5.9
2018-Jun-14 00:58N 29°45' W 095°06'  

Dump ship's entire track history